Station Historical Data
Daily Summary for December 6, 2017 Units:  English    Metric   Both
« Previous Day
Next Day »
Daily Weekly Monthly Yearly Custom
  High: Low: Average:
Temperature: 55.4 °F 38.6 °F 46.9 °F
Dew Point: 40.3 °F 20.5 °F 28.3 °F
Humidity: 73 % 29 % 50 %
Wind Speed: 14.0 mph 0.0 mph 1.2 mph
Wind Gust: 28.0 mph - -
Wind:- - ESE
Pressure: 30.42 in 30.30 in -
Precipitation: 0.00 in    
Historical Graphs
 
 
Tabular Data for December 6, 2017
Time Temperature Dew Point Pressure Wind Wind Speed Wind Gust Humidity Rainfall Rate (Hourly) solar
00:04 40.4 °F 31.8 °F 30.31 in Calm     71 % 0.00 in 0.00 W/m2
00:09 40.4 °F 32.4 °F 30.31 in Calm     73 % 0.00 in 0.00 W/m2
00:14 40.3 °F 31.7 °F 30.31 in Calm     71 % 0.00 in 0.00 W/m2
00:15 40.4 °F 31.8 °F 30.31 in Calm     71 % 0.00 in 0.00 W/m2
00:20 40.3 °F 31.7 °F 30.30 in Calm     71 % 0.00 in 0.00 W/m2
00:25 40.2 °F 31.2 °F 30.30 in Calm     70 % 0.00 in 0.00 W/m2
00:30 40.1 °F 31.5 °F 30.30 in Calm     71 % 0.00 in 0.00 W/m2
00:35 40.1 °F 32.2 °F 30.30 in Calm     73 % 0.00 in 0.00 W/m2
00:40 40.1 °F 31.5 °F 30.30 in Calm     71 % 0.00 in 0.00 W/m2
00:45 40.0 °F 31.7 °F 30.30 in Calm     72 % 0.00 in 0.00 W/m2
00:50 39.9 °F 30.9 °F 30.30 in Calm     70 % 0.00 in 0.00 W/m2
00:55 39.9 °F 30.9 °F 30.31 in Calm     70 % 0.00 in 0.00 W/m2
01:00 39.8 °F 30.5 °F 30.31 in Calm     69 % 0.00 in 0.00 W/m2
01:05 39.8 °F 30.5 °F 30.31 in Calm     69 % 0.00 in 0.00 W/m2
01:10 39.7 °F 30.4 °F 30.31 in Calm     69 % 0.00 in 0.00 W/m2
01:15 39.6 °F 29.9 °F 30.31 in Calm     68 % 0.00 in 0.00 W/m2
01:20 39.6 °F 29.6 °F 30.31 in Calm     67 % 0.00 in 0.00 W/m2
01:25 39.5 °F 29.1 °F 30.31 in Calm     66 % 0.00 in 0.00 W/m2
01:30 39.5 °F 29.5 °F 30.31 in Calm     67 % 0.00 in 0.00 W/m2
01:35 39.5 °F 29.5 °F 30.31 in Calm     67 % 0.00 in 0.00 W/m2
01:40 39.4 °F 28.2 °F 30.31 in Calm     64 % 0.00 in 0.00 W/m2
01:45 39.3 °F 28.5 °F 30.31 in Calm     65 % 0.00 in 0.00 W/m2
01:50 39.3 °F 27.8 °F 30.31 in Calm     63 % 0.00 in 0.00 W/m2
01:55 39.3 °F 28.2 °F 30.31 in Calm     64 % 0.00 in 0.00 W/m2
02:00 39.4 °F 28.2 °F 30.31 in Calm     64 % 0.00 in 0.00 W/m2
02:01 39.3 °F 28.2 °F 30.31 in Calm     64 % 0.00 in 0.00 W/m2
02:06 39.3 °F 27.8 °F 30.31 in Calm     63 % 0.00 in 0.00 W/m2
02:11 39.3 °F 27.4 °F 30.32 in Calm     62 % 0.00 in 0.00 W/m2
02:16 39.2 °F 27.3 °F 30.31 in Calm     62 % 0.00 in 0.00 W/m2
02:21 39.2 °F 27.7 °F 30.31 in Calm     63 % 0.00 in 0.00 W/m2
02:26 39.2 °F 27.3 °F 30.31 in Calm     62 % 0.00 in 0.00 W/m2
02:31 39.2 °F 28.1 °F 30.31 in Calm     64 % 0.00 in 0.00 W/m2
02:36 39.2 °F 27.3 °F 30.31 in Calm     62 % 0.00 in 0.00 W/m2
02:41 39.1 °F 27.6 °F 30.31 in Calm     63 % 0.00 in 0.00 W/m2
02:46 39.1 °F 27.2 °F 30.32 in Calm     62 % 0.00 in 0.00 W/m2
02:51 39.0 °F 27.1 °F 30.32 in Calm     62 % 0.00 in 0.00 W/m2
02:56 39.0 °F 27.5 °F 30.31 in Calm     63 % 0.00 in 0.00 W/m2
03:01 38.9 °F 27.0 °F 30.32 in Calm     62 % 0.00 in 0.00 W/m2
03:06 38.9 °F 27.0 °F 30.31 in Calm     62 % 0.00 in 0.00 W/m2
03:12 38.9 °F 27.0 °F 30.31 in Calm     62 % 0.00 in 0.00 W/m2
03:17 38.9 °F 26.2 °F 30.32 in Calm     60 % 0.00 in 0.00 W/m2
03:22 38.9 °F 26.2 °F 30.32 in Calm     60 % 0.00 in 0.00 W/m2
03:27 39.0 °F 25.9 °F 30.32 in Calm     59 % 0.00 in 0.00 W/m2
03:32 39.0 °F 26.3 °F 30.31 in Calm     60 % 0.00 in 0.00 W/m2
03:37 39.1 °F 26.8 °F 30.31 in Calm     61 % 0.00 in 0.00 W/m2
03:42 39.1 °F 27.2 °F 30.31 in Calm     62 % 0.00 in 0.00 W/m2
03:47 39.1 °F 28.0 °F 30.30 in Calm     64 % 0.00 in 0.00 W/m2
03:57 39.2 °F 28.1 °F 30.31 in Calm     64 % 0.00 in 0.00 W/m2
04:02 39.3 °F 27.0 °F 30.31 in Calm     61 % 0.00 in 0.00 W/m2
04:07 39.3 °F 27.0 °F 30.31 in Calm     61 % 0.00 in 0.00 W/m2
04:12 39.4 °F 27.5 °F 30.31 in Calm     62 % 0.00 in 0.00 W/m2
04:17 39.4 °F 27.1 °F 30.31 in Calm     61 % 0.00 in 0.00 W/m2
04:22 39.4 °F 27.5 °F 30.32 in Calm     62 % 0.00 in 0.00 W/m2
04:27 39.4 °F 27.9 °F 30.32 in Calm     63 % 0.00 in 0.00 W/m2
04:32 39.3 °F 27.0 °F 30.32 in Calm     61 % 0.00 in 0.00 W/m2
04:37 39.4 °F 27.9 °F 30.32 in Calm     63 % 0.00 in 0.00 W/m2
04:42 39.3 °F 27.8 °F 30.32 in Calm     63 % 0.00 in 0.00 W/m2
04:47 39.3 °F 27.4 °F 30.32 in Calm     62 % 0.00 in 0.00 W/m2
04:52 39.2 °F 26.5 °F 30.32 in Calm     60 % 0.00 in 0.00 W/m2
04:57 39.2 °F 26.1 °F 30.32 in Calm     59 % 0.00 in 0.00 W/m2
05:02 39.2 °F 26.5 °F 30.32 in Calm     60 % 0.00 in 0.00 W/m2
05:07 39.2 °F 27.3 °F 30.32 in Calm     62 % 0.00 in 0.00 W/m2
05:12 39.1 °F 26.0 °F 30.32 in Calm     59 % 0.00 in 0.00 W/m2
05:17 39.1 °F 26.0 °F 30.32 in Calm     59 % 0.00 in 0.00 W/m2
05:27 39.1 °F 25.6 °F 30.32 in Calm     58 % 0.00 in 0.00 W/m2
05:32 39.0 °F 25.9 °F 30.32 in Calm     59 % 0.00 in 0.00 W/m2
05:37 39.0 °F 26.7 °F 30.32 in Calm     61 % 0.00 in 0.00 W/m2
05:42 39.0 °F 25.9 °F 30.33 in Calm     59 % 0.00 in 0.00 W/m2
05:48 38.9 °F 27.0 °F 30.32 in Calm     62 % 0.00 in 0.00 W/m2
05:53 38.9 °F 26.6 °F 30.32 in Calm     61 % 0.00 in 0.00 W/m2
05:58 38.9 °F 26.6 °F 30.33 in Calm     61 % 0.00 in 0.00 W/m2
06:03 38.9 °F 25.8 °F 30.33 in Calm     59 % 0.00 in 0.00 W/m2
06:08 38.9 °F 26.6 °F 30.33 in Calm     61 % 0.00 in 0.00 W/m2
06:13 38.9 °F 26.6 °F 30.33 in Calm     61 % 0.00 in 0.00 W/m2
06:18 38.8 °F 26.5 °F 30.33 in Calm     61 % 0.00 in 0.00 W/m2
06:23 38.8 °F 26.1 °F 30.33 in Calm     60 % 0.00 in 0.00 W/m2
06:28 38.8 °F 26.5 °F 30.33 in Calm     61 % 0.00 in 0.00 W/m2
06:33 38.8 °F 26.5 °F 30.33 in Calm     61 % 0.00 in 0.00 W/m2
06:34 38.8 °F 26.1 °F 30.33 in Calm     60 % 0.00 in 0.00 W/m2
06:39 38.8 °F 26.5 °F 30.34 in Calm     61 % 0.00 in 0.00 W/m2
06:44 38.8 °F 26.1 °F 30.34 in Calm     60 % 0.00 in 0.00 W/m2
06:49 38.8 °F 26.1 °F 30.34 in Calm     60 % 0.00 in 0.00 W/m2
06:54 38.8 °F 26.1 °F 30.34 in Calm     60 % 0.00 in 0.00 W/m2
06:59 38.7 °F 26.4 °F 30.34 in Calm     61 % 0.00 in 0.00 W/m2
07:04 38.7 °F 26.4 °F 30.34 in Calm     61 % 0.00 in 5.00 W/m2
07:09 38.6 °F 26.3 °F 30.34 in Calm     61 % 0.00 in 7.00 W/m2
07:10 38.6 °F 26.3 °F 30.34 in Calm     61 % 0.00 in 7.00 W/m2
07:20 38.6 °F 25.9 °F 30.34 in Calm     60 % 0.00 in 12.00 W/m2
07:25 38.6 °F 26.7 °F 30.34 in Calm     62 % 0.00 in 14.00 W/m2
07:30 38.6 °F 26.3 °F 30.35 in Calm     61 % 0.00 in 18.00 W/m2
07:35 38.7 °F 27.2 °F 30.35 in Calm     63 % 0.00 in 23.00 W/m2
07:40 38.7 °F 26.4 °F 30.35 in Calm     61 % 0.00 in 33.00 W/m2
07:45 38.8 °F 26.5 °F 30.35 in Calm     61 % 0.00 in 26.00 W/m2
07:50 39.0 °F 27.1 °F 30.35 in Calm     62 % 0.00 in 60.00 W/m2
07:55 39.1 °F 26.4 °F 30.35 in Calm     60 % 0.00 in 76.00 W/m2
08:00 39.2 °F 26.5 °F 30.35 in Calm     60 % 0.00 in 90.00 W/m2
08:05 39.4 °F 26.7 °F 30.35 in Calm     60 % 0.00 in 105.00 W/m2
08:10 39.5 °F 26.8 °F 30.36 in Calm     60 % 0.00 in 121.00 W/m2
08:15 39.7 °F 26.6 °F 30.36 in Calm     59 % 0.00 in 135.00 W/m2
08:20 40.0 °F 25.6 °F 30.36 in Calm     56 % 0.00 in 153.00 W/m2
08:25 40.2 °F 26.2 °F 30.36 in Calm     57 % 0.00 in 169.00 W/m2
08:30 40.4 °F 27.2 °F 30.36 in Calm     59 % 0.00 in 188.00 W/m2
08:35 40.5 °F 26.0 °F 30.36 in Calm     56 % 0.00 in 207.00 W/m2
08:40 40.7 °F 27.5 °F 30.37 in Calm     59 % 0.00 in 225.00 W/m2
08:45 40.8 °F 27.2 °F 30.37 in Calm     58 % 0.00 in 243.00 W/m2
08:51 41.0 °F 27.4 °F 30.37 in Calm     58 % 0.00 in 258.00 W/m2
08:56 41.2 °F 27.1 °F 30.37 in Calm     57 % 0.00 in 276.00 W/m2
09:01 41.4 °F 26.9 °F 30.37 in Calm     56 % 0.00 in 294.00 W/m2
09:06 41.5 °F 27.8 °F 30.37 in Calm     58 % 0.00 in 304.00 W/m2
09:11 41.8 °F 27.3 °F 30.37 in SE 1.0 mph 2.0 mph 56 % 0.00 in 318.00 W/m2
09:16 42.2 °F 29.7 °F 30.37 in Calm     61 % 0.00 in 334.00 W/m2
09:21 42.5 °F 30.0 °F 30.37 in Calm     61 % 0.00 in 345.00 W/m2
09:26 42.8 °F 29.9 °F 30.38 in Calm     60 % 0.00 in 355.00 W/m2
09:31 43.1 °F 30.6 °F 30.38 in Calm     61 % 0.00 in 366.00 W/m2
09:36 43.4 °F 32.0 °F 30.38 in Calm     64 % 0.00 in 378.00 W/m2
09:41 43.7 °F 30.7 °F 30.38 in Calm     60 % 0.00 in 388.00 W/m2
09:46 44.0 °F 30.2 °F 30.38 in Calm     58 % 0.00 in 396.00 W/m2
09:51 44.3 °F 30.0 °F 30.38 in Calm     57 % 0.00 in 406.00 W/m2
09:56 44.7 °F 30.9 °F 30.39 in Calm     58 % 0.00 in 415.00 W/m2
10:01 45.1 °F 29.5 °F 30.39 in Calm     54 % 0.00 in 424.00 W/m2
10:06 45.4 °F 30.2 °F 30.39 in Calm     55 % 0.00 in 432.00 W/m2
10:11 45.8 °F 29.7 °F 30.39 in Calm     53 % 0.00 in 439.00 W/m2
10:16 46.2 °F 29.6 °F 30.39 in Calm   1.0 mph 52 % 0.00 in 448.00 W/m2
10:21 46.5 °F 26.3 °F 30.39 in Calm     45 % 0.00 in 455.00 W/m2
10:26 47.0 °F 28.9 °F 30.39 in Calm     49 % 0.00 in 461.00 W/m2
10:31 47.3 °F 27.6 °F 30.39 in Calm     46 % 0.00 in 468.00 W/m2
10:36 47.7 °F 26.3 °F 30.39 in Calm     43 % 0.00 in 475.00 W/m2
10:41 48.1 °F 29.4 °F 30.39 in Calm     48 % 0.00 in 480.00 W/m2
10:46 48.3 °F 28.0 °F 30.39 in Calm     45 % 0.00 in 485.00 W/m2
10:51 48.6 °F 27.7 °F 30.39 in Calm     44 % 0.00 in 490.00 W/m2
10:56 48.7 °F 28.9 °F 30.38 in Calm     46 % 0.00 in 494.00 W/m2
11:01 49.1 °F 27.0 °F 30.38 in Calm     42 % 0.00 in 496.00 W/m2
11:06 49.5 °F 27.4 °F 30.38 in Calm     42 % 0.00 in 501.00 W/m2
11:11 49.9 °F 29.4 °F 30.38 in Calm     45 % 0.00 in 503.00 W/m2
11:16 50.0 °F 29.5 °F 30.38 in Calm     45 % 0.00 in 506.00 W/m2
11:21 50.2 °F 29.1 °F 30.37 in Calm     44 % 0.00 in 510.00 W/m2
11:26 50.4 °F 31.0 °F 30.37 in Calm     47 % 0.00 in 512.00 W/m2
11:31 50.5 °F 29.4 °F 30.37 in Calm     44 % 0.00 in 513.00 W/m2
11:36 50.6 °F 30.1 °F 30.37 in Calm     45 % 0.00 in 515.00 W/m2
11:41 50.9 °F 29.8 °F 30.37 in Calm     44 % 0.00 in 515.00 W/m2
11:46 51.2 °F 30.6 °F 30.37 in Calm     45 % 0.00 in 517.00 W/m2
11:51 51.8 °F 31.7 °F 30.36 in Calm     46 % 0.00 in 515.00 W/m2
11:56 52.0 °F 31.3 °F 30.36 in Calm     45 % 0.00 in 517.00 W/m2
11:58 52.0 °F 31.3 °F 30.36 in Calm     45 % 0.00 in 515.00 W/m2
12:03 52.2 °F 32.1 °F 30.36 in Calm     46 % 0.00 in 515.00 W/m2
12:08 52.4 °F 32.8 °F 30.36 in Calm     47 % 0.00 in 513.00 W/m2
12:13 52.5 °F 32.3 °F 30.35 in Calm     46 % 0.00 in 512.00 W/m2
12:18 52.6 °F 31.9 °F 30.35 in Calm   2.0 mph 45 % 0.00 in 512.00 W/m2
12:23 52.8 °F 33.2 °F 30.35 in Calm     47 % 0.00 in 508.00 W/m2
12:28 53.0 °F 32.2 °F 30.35 in Calm     45 % 0.00 in 504.00 W/m2
12:33 53.2 °F 32.4 °F 30.34 in Calm     45 % 0.00 in 503.00 W/m2
12:38 53.4 °F 33.2 °F 30.34 in Calm   4.0 mph 46 % 0.00 in 499.00 W/m2
12:43 53.5 °F 33.2 °F 30.34 in Calm     46 % 0.00 in 494.00 W/m2
12:48 53.5 °F 32.7 °F 30.34 in Calm   1.0 mph 45 % 0.00 in 489.00 W/m2
12:53 53.6 °F 31.7 °F 30.34 in Calm     43 % 0.00 in 487.00 W/m2
12:58 53.6 °F 32.2 °F 30.34 in Calm   1.0 mph 44 % 0.00 in 482.00 W/m2
13:03 53.7 °F 32.3 °F 30.33 in Calm   2.0 mph 44 % 0.00 in 478.00 W/m2
13:08 53.7 °F 34.0 °F 30.33 in Calm     47 % 0.00 in 469.00 W/m2
13:13 53.7 °F 32.3 °F 30.33 in Calm     44 % 0.00 in 462.00 W/m2
13:18 53.7 °F 33.4 °F 30.33 in Calm   1.0 mph 46 % 0.00 in 459.00 W/m2
13:23 53.6 °F 31.7 °F 30.33 in Calm   1.0 mph 43 % 0.00 in 450.00 W/m2
13:28 53.6 °F 30.5 °F 30.33 in Calm   2.0 mph 41 % 0.00 in 443.00 W/m2
13:33 53.8 °F 31.3 °F 30.33 in Calm   2.0 mph 42 % 0.00 in 434.00 W/m2
13:38 53.8 °F 31.9 °F 30.34 in NW 1.0 mph 4.0 mph 43 % 0.00 in 427.00 W/m2
13:43 53.9 °F 31.9 °F 30.34 in Calm   6.0 mph 43 % 0.00 in 420.00 W/m2
13:48 54.0 °F 32.0 °F 30.34 in Calm   3.0 mph 43 % 0.00 in 410.00 W/m2
13:53 54.0 °F 33.7 °F 30.33 in NNW 3.0 mph 5.0 mph 46 % 0.00 in 401.00 W/m2
13:58 54.1 °F 34.9 °F 30.33 in Calm   5.0 mph 48 % 0.00 in 392.00 W/m2
14:03 54.1 °F 34.3 °F 30.33 in NW 1.0 mph 2.0 mph 47 % 0.00 in 385.00 W/m2
14:08 54.1 °F 33.8 °F 30.34 in Calm     46 % 0.00 in 381.00 W/m2
14:13 54.2 °F 33.3 °F 30.33 in Calm     45 % 0.00 in 380.00 W/m2
14:18 54.2 °F 34.4 °F 30.34 in Calm     47 % 0.00 in 374.00 W/m2
14:23 54.2 °F 34.4 °F 30.34 in Calm     47 % 0.00 in 357.00 W/m2
14:28 54.1 °F 35.4 °F 30.34 in Calm   2.0 mph 49 % 0.00 in 274.00 W/m2
14:33 54.1 °F 36.9 °F 30.34 in Calm   4.0 mph 52 % 0.00 in 306.00 W/m2
14:38 54.0 °F 36.3 °F 30.34 in Calm     51 % 0.00 in 311.00 W/m2
14:43 54.0 °F 37.3 °F 30.34 in Calm     53 % 0.00 in 299.00 W/m2
14:49 53.9 °F 36.7 °F 30.35 in Calm     52 % 0.00 in 283.00 W/m2
14:54 53.9 °F 37.2 °F 30.35 in Calm     53 % 0.00 in 283.00 W/m2
14:59 53.8 °F 36.6 °F 30.35 in Calm     52 % 0.00 in 272.00 W/m2
15:04 53.7 °F 37.0 °F 30.34 in Calm     53 % 0.00 in 230.00 W/m2
15:09 53.8 °F 37.6 °F 30.34 in Calm     54 % 0.00 in 181.00 W/m2
15:14 53.8 °F 38.5 °F 30.34 in Calm   4.0 mph 56 % 0.00 in 195.00 W/m2
15:19 53.9 °F 39.5 °F 30.34 in ENE 6.0 mph 15.0 mph 58 % 0.00 in 197.00 W/m2
15:24 53.8 °F 40.3 °F 30.34 in East 5.0 mph 10.0 mph 60 % 0.00 in 93.00 W/m2
15:29 53.7 °F 38.8 °F 30.34 in East 4.0 mph 13.0 mph 57 % 0.00 in 49.00 W/m2
15:34 53.7 °F 39.3 °F 30.34 in ENE 1.0 mph 10.0 mph 58 % 0.00 in 95.00 W/m2
15:39 53.6 °F 37.4 °F 30.34 in Calm   10.0 mph 54 % 0.00 in 132.00 W/m2
15:44 53.6 °F 37.8 °F 30.34 in ENE 7.0 mph 11.0 mph 55 % 0.00 in 111.00 W/m2
15:49 53.4 °F 39.0 °F 30.34 in Calm   10.0 mph 58 % 0.00 in 83.00 W/m2
15:54 53.1 °F 39.2 °F 30.34 in ENE 4.0 mph 13.0 mph 59 % 0.00 in 74.00 W/m2
15:59 52.8 °F 38.9 °F 30.34 in ENE 10.0 mph 16.0 mph 59 % 0.00 in 62.00 W/m2
16:04 52.5 °F 37.3 °F 30.34 in Calm   17.0 mph 56 % 0.00 in 49.00 W/m2
16:09 52.4 °F 35.3 °F 30.34 in ENE 4.0 mph 10.0 mph 52 % 0.00 in 35.00 W/m2
16:14 52.3 °F 35.2 °F 30.34 in East 11.0 mph 14.0 mph 52 % 0.00 in 26.00 W/m2
16:19 52.3 °F 35.7 °F 30.34 in East 2.0 mph 15.0 mph 53 % 0.00 in 18.00 W/m2
16:24 52.4 °F 34.3 °F 30.34 in ENE 2.0 mph 12.0 mph 50 % 0.00 in 14.00 W/m2
16:29 52.5 °F 32.9 °F 30.35 in Calm   10.0 mph 47 % 0.00 in 12.00 W/m2
16:30 52.5 °F 32.9 °F 30.35 in East 8.0 mph 14.0 mph 47 % 0.00 in 11.00 W/m2
16:35 52.6 °F 34.0 °F 30.35 in East 3.0 mph 12.0 mph 49 % 0.00 in 9.00 W/m2
16:40 52.7 °F 33.6 °F 30.35 in NE 8.0 mph 21.0 mph 48 % 0.00 in 7.00 W/m2
16:41 52.7 °F 32.5 °F 30.35 in ENE 6.0 mph 13.0 mph 46 % 0.00 in 7.00 W/m2
16:46 52.8 °F 31.5 °F 30.35 in ENE 1.0 mph 12.0 mph 44 % 0.00 in 5.00 W/m2
16:51 53.2 °F 31.9 °F 30.35 in East 10.0 mph 15.0 mph 44 % 0.00 in 0.00 W/m2
16:56 53.4 °F 31.5 °F 30.35 in East 2.0 mph 13.0 mph 43 % 0.00 in 0.00 W/m2
17:02 53.3 °F 31.4 °F 30.35 in ENE 1.0 mph 3.0 mph 43 % 0.00 in 0.00 W/m2
17:07 53.3 °F 31.4 °F 30.35 in East 4.0 mph 11.0 mph 43 % 0.00 in 0.00 W/m2
17:12 53.2 °F 29.5 °F 30.36 in East 14.0 mph 15.0 mph 40 % 0.00 in 0.00 W/m2
17:17 53.2 °F 29.5 °F 30.35 in Calm   5.0 mph 40 % 0.00 in 0.00 W/m2
17:22 53.2 °F 29.5 °F 30.36 in ESE 6.0 mph 7.0 mph 40 % 0.00 in 0.00 W/m2
17:27 53.2 °F 29.5 °F 30.36 in Calm   12.0 mph 40 % 0.00 in 0.00 W/m2
17:32 53.1 °F 27.5 °F 30.36 in ESE 6.0 mph 15.0 mph 37 % 0.00 in 0.00 W/m2
17:37 53.1 °F 29.4 °F 30.36 in East 7.0 mph 12.0 mph 40 % 0.00 in 0.00 W/m2
17:42 53.2 °F 26.3 °F 30.36 in Calm   19.0 mph 35 % 0.00 in 0.00 W/m2
17:47 53.4 °F 25.0 °F 30.36 in ENE 1.0 mph 13.0 mph 33 % 0.00 in 0.00 W/m2
17:52 53.8 °F 26.1 °F 30.36 in ENE 3.0 mph 17.0 mph 34 % 0.00 in 0.00 W/m2
17:57 54.3 °F 26.5 °F 30.35 in East 5.0 mph 25.0 mph 34 % 0.00 in 0.00 W/m2
18:02 54.6 °F 25.4 °F 30.35 in ESE 9.0 mph 28.0 mph 32 % 0.00 in 0.00 W/m2
18:07 54.7 °F 24.7 °F 30.35 in Calm   20.0 mph 31 % 0.00 in 0.00 W/m2
18:12 54.8 °F 24.0 °F 30.36 in ENE 11.0 mph 23.0 mph 30 % 0.00 in 0.00 W/m2
18:17 55.1 °F 24.2 °F 30.36 in SE 7.0 mph 24.0 mph 30 % 0.00 in 0.00 W/m2
18:22 55.2 °F 25.1 °F 30.36 in ESE 9.0 mph 22.0 mph 31 % 0.00 in 0.00 W/m2
18:27 55.4 °F 24.5 °F 30.36 in East 11.0 mph 15.0 mph 30 % 0.00 in 0.00 W/m2
18:31 55.4 °F 23.7 °F 30.36 in ESE 13.0 mph 17.0 mph 29 % 0.00 in 0.00 W/m2
18:36 55.2 °F 25.1 °F 30.37 in SE 5.0 mph 11.0 mph 31 % 0.00 in 0.00 W/m2
18:41 54.8 °F 24.0 °F 30.37 in Calm   22.0 mph 30 % 0.00 in 0.00 W/m2
18:46 54.5 °F 25.3 °F 30.37 in Calm   14.0 mph 32 % 0.00 in 0.00 W/m2
18:51 54.2 °F 23.5 °F 30.37 in SE 9.0 mph 16.0 mph 30 % 0.00 in 0.00 W/m2
18:57 54.1 °F 22.6 °F 30.38 in Calm   8.0 mph 29 % 0.00 in 0.00 W/m2
19:02 53.9 °F 24.0 °F 30.38 in Calm   1.0 mph 31 % 0.00 in 0.00 W/m2
19:07 53.7 °F 24.6 °F 30.38 in Calm     32 % 0.00 in 0.00 W/m2
19:13 53.3 °F 25.0 °F 30.38 in Calm   2.0 mph 33 % 0.00 in 0.00 W/m2
19:18 53.0 °F 24.0 °F 30.38 in Calm     32 % 0.00 in 5.00 W/m2
19:23 52.6 °F 24.3 °F 30.38 in Calm     33 % 0.00 in 0.00 W/m2
19:24 52.5 °F 25.7 °F 30.38 in Calm   1.0 mph 35 % 0.00 in 0.00 W/m2
19:29 52.2 °F 24.7 °F 30.38 in Calm   1.0 mph 34 % 0.00 in 0.00 W/m2
19:35 51.9 °F 25.1 °F 30.38 in Calm   1.0 mph 35 % 0.00 in 0.00 W/m2
19:39 51.5 °F 25.5 °F 30.38 in Calm     36 % 0.00 in 0.00 W/m2
19:44 51.3 °F 25.3 °F 30.38 in Calm     36 % 0.00 in 0.00 W/m2
19:49 50.8 °F 24.1 °F 30.38 in Calm   2.0 mph 35 % 0.00 in 5.00 W/m2
19:54 50.4 °F 26.4 °F 30.39 in Calm   1.0 mph 39 % 0.00 in 0.00 W/m2
19:59 50.1 °F 24.2 °F 30.39 in Calm     36 % 0.00 in 0.00 W/m2
20:05 49.9 °F 23.4 °F 30.39 in Calm     35 % 0.00 in 0.00 W/m2
20:10 49.7 °F 23.2 °F 30.39 in Calm     35 % 0.00 in 0.00 W/m2
20:15 49.6 °F 22.4 °F 30.40 in Calm     34 % 0.00 in 0.00 W/m2
20:20 49.5 °F 22.3 °F 30.40 in Calm     34 % 0.00 in 0.00 W/m2
20:25 49.5 °F 22.3 °F 30.40 in Calm     34 % 0.00 in 0.00 W/m2
20:30 49.4 °F 23.6 °F 30.40 in Calm     36 % 0.00 in 0.00 W/m2
20:35 49.3 °F 22.1 °F 30.40 in Calm     34 % 0.00 in 0.00 W/m2
20:40 49.3 °F 22.8 °F 30.40 in East 1.0 mph 2.0 mph 35 % 0.00 in 0.00 W/m2
20:45 49.4 °F 22.9 °F 30.40 in Calm   4.0 mph 35 % 0.00 in 0.00 W/m2
20:50 49.4 °F 22.9 °F 30.40 in East 2.0 mph 4.0 mph 35 % 0.00 in 0.00 W/m2
20:55 49.4 °F 21.5 °F 30.41 in Calm   5.0 mph 33 % 0.00 in 0.00 W/m2
21:00 49.5 °F 23.0 °F 30.41 in Calm     35 % 0.00 in 0.00 W/m2
21:05 49.6 °F 21.7 °F 30.41 in Calm   2.0 mph 33 % 0.00 in 0.00 W/m2
21:10 49.8 °F 22.6 °F 30.41 in Calm   2.0 mph 34 % 0.00 in 0.00 W/m2
21:15 49.9 °F 20.5 °F 30.41 in Calm     31 % 0.00 in 0.00 W/m2
21:20 50.0 °F 22.0 °F 30.41 in Calm   2.0 mph 33 % 0.00 in 0.00 W/m2
21:25 49.9 °F 24.0 °F 30.41 in Calm     36 % 0.00 in 0.00 W/m2
21:30 49.9 °F 22.7 °F 30.41 in Calm   5.0 mph 34 % 0.00 in 0.00 W/m2
21:35 49.7 °F 23.9 °F 30.41 in East 1.0 mph 2.0 mph 36 % 0.00 in 0.00 W/m2
21:40 49.6 °F 23.8 °F 30.41 in East 4.0 mph 6.0 mph 36 % 0.00 in 0.00 W/m2
21:45 49.5 °F 23.7 °F 30.42 in Calm   6.0 mph 36 % 0.00 in 0.00 W/m2
21:50 49.4 °F 24.2 °F 30.42 in East 1.0 mph 7.0 mph 37 % 0.00 in 0.00 W/m2
21:55 49.3 °F 24.1 °F 30.42 in ESE 4.0 mph 9.0 mph 37 % 0.00 in 0.00 W/m2
22:00 49.3 °F 23.5 °F 30.41 in East 1.0 mph 5.0 mph 36 % 0.00 in 0.00 W/m2
22:05 49.4 °F 22.9 °F 30.41 in Calm   15.0 mph 35 % 0.00 in 0.00 W/m2
22:10 49.5 °F 23.7 °F 30.42 in ESE 8.0 mph 14.0 mph 36 % 0.00 in 0.00 W/m2
22:15 49.7 °F 23.9 °F 30.42 in East 11.0 mph 11.0 mph 36 % 0.00 in 0.00 W/m2
22:20 49.9 °F 24.0 °F 30.42 in East 1.0 mph 13.0 mph 36 % 0.00 in 0.00 W/m2
22:25 50.1 °F 24.2 °F 30.42 in ESE 1.0 mph 14.0 mph 36 % 0.00 in 0.00 W/m2
22:30 50.3 °F 24.4 °F 30.42 in ESE 4.0 mph 15.0 mph 36 % 0.00 in 0.00 W/m2
22:35 50.4 °F 23.1 °F 30.42 in Calm   11.0 mph 34 % 0.00 in 0.00 W/m2
22:40 50.5 °F 23.9 °F 30.42 in East 1.0 mph 13.0 mph 35 % 0.00 in 0.00 W/m2
22:45 50.8 °F 23.5 °F 30.42 in ESE 11.0 mph 15.0 mph 34 % 0.00 in 0.00 W/m2
22:50 50.9 °F 24.2 °F 30.42 in East 13.0 mph 19.0 mph 35 % 0.00 in 0.00 W/m2
22:55 51.0 °F 22.2 °F 30.42 in East 9.0 mph 15.0 mph 32 % 0.00 in 0.00 W/m2
23:00 51.2 °F 23.1 °F 30.42 in East 2.0 mph 13.0 mph 33 % 0.00 in 0.00 W/m2
23:05 51.4 °F 23.3 °F 30.42 in ESE 7.0 mph 7.0 mph 33 % 0.00 in 0.00 W/m2
23:10 51.4 °F 24.0 °F 30.42 in ESE 1.0 mph 11.0 mph 34 % 0.00 in 0.00 W/m2
23:15 51.5 °F 23.4 °F 30.42 in East 5.0 mph 19.0 mph 33 % 0.00 in 0.00 W/m2
23:20 51.4 °F 22.5 °F 30.42 in ESE 8.0 mph 12.0 mph 32 % 0.00 in 0.00 W/m2
23:25 51.4 °F 23.3 °F 30.42 in East 9.0 mph 18.0 mph 33 % 0.00 in 0.00 W/m2
23:30 51.4 °F 21.8 °F 30.42 in ESE 5.0 mph 15.0 mph 31 % 0.00 in 0.00 W/m2
23:35 51.4 °F 23.3 °F 30.42 in Calm   14.0 mph 33 % 0.00 in 0.00 W/m2
23:40 51.4 °F 22.5 °F 30.41 in East 2.0 mph 2.0 mph 32 % 0.00 in 0.00 W/m2
23:45 51.5 °F 22.6 °F 30.41 in ESE 1.0 mph 4.0 mph 32 % 0.00 in 0.00 W/m2
23:50 51.6 °F 23.5 °F 30.41 in ESE 5.0 mph 9.0 mph 33 % 0.00 in 0.00 W/m2
23:55 51.7 °F 22.1 °F 30.41 in ESE 4.0 mph 11.0 mph 31 % 0.00 in 0.00 W/m2
Juneau County Weather
Compliments of Weather Underground - 4.5 mb
 WU-history PHP script courtesy of   Juneau County Weather.
powered by Cumulus v1.9.3 (1059)
Ambient Weather VWS v14.00
Top Contact Website Map Copyright © 2007 - 2018 Foresthillweather.com Never base important decisions on this or any weather information obtained from the Internet